sensor_id;sensor_type;location;lat;lon;timestamp;P1;durP1;ratioP1;P2;durP2;ratioP2
7919;SDS011;18778;47.610;9.776;2023-06-19T00:01:47;10.83;;;9.93;;
7919;SDS011;18778;47.610;9.776;2023-06-19T00:04:13;11.37;;;10.37;;
7919;SDS011;18778;47.610;9.776;2023-06-19T00:06:39;10.50;;;9.60;;
7919;SDS011;18778;47.610;9.776;2023-06-19T00:09:06;11.60;;;9.90;;
7919;SDS011;18778;47.610;9.776;2023-06-19T00:11:32;11.17;;;10.03;;
7919;SDS011;18778;47.610;9.776;2023-06-19T00:14:00;11.33;;;10.30;;
7919;SDS011;18778;47.610;9.776;2023-06-19T00:16:26;10.03;;;9.00;;
7919;SDS011;18778;47.610;9.776;2023-06-19T00:18:52;10.30;;;9.20;;
7919;SDS011;18778;47.610;9.776;2023-06-19T00:21:21;12.27;;;10.00;;
7919;SDS011;18778;47.610;9.776;2023-06-19T00:23:49;11.33;;;10.27;;
7919;SDS011;18778;47.610;9.776;2023-06-19T00:26:16;10.37;;;9.47;;
7919;SDS011;18778;47.610;9.776;2023-06-19T00:28:41;11.27;;;10.20;;
7919;SDS011;18778;47.610;9.776;2023-06-19T00:31:09;11.53;;;10.43;;
7919;SDS011;18778;47.610;9.776;2023-06-19T00:33:39;10.87;;;9.70;;
7919;SDS011;18778;47.610;9.776;2023-06-19T00:36:09;10.93;;;9.93;;
7919;SDS011;18778;47.610;9.776;2023-06-19T00:38:35;10.97;;;9.97;;
7919;SDS011;18778;47.610;9.776;2023-06-19T00:41:01;14.20;;;10.40;;
7919;SDS011;18778;47.610;9.776;2023-06-19T00:43:28;11.63;;;10.43;;
7919;SDS011;18778;47.610;9.776;2023-06-19T00:45:55;11.53;;;10.43;;
7919;SDS011;18778;47.610;9.776;2023-06-19T00:48:21;12.00;;;10.43;;
7919;SDS011;18778;47.610;9.776;2023-06-19T00:50:48;11.13;;;10.00;;
7919;SDS011;18778;47.610;9.776;2023-06-19T00:53:14;11.57;;;10.43;;
7919;SDS011;18778;47.610;9.776;2023-06-19T00:55:40;11.57;;;10.33;;
7919;SDS011;18778;47.610;9.776;2023-06-19T00:58:08;11.30;;;10.30;;
7919;SDS011;18778;47.610;9.776;2023-06-19T01:00:34;10.73;;;9.67;;
7919;SDS011;18778;47.610;9.776;2023-06-19T01:03:00;10.37;;;9.37;;
7919;SDS011;18778;47.610;9.776;2023-06-19T01:05:26;10.83;;;9.80;;
7919;SDS011;18778;47.610;9.776;2023-06-19T01:07:54;10.33;;;9.40;;
7919;SDS011;18778;47.610;9.776;2023-06-19T01:10:26;10.27;;;9.37;;
7919;SDS011;18778;47.610;9.776;2023-06-19T01:12:58;10.77;;;9.77;;
7919;SDS011;18778;47.610;9.776;2023-06-19T01:15:26;10.53;;;9.37;;
7919;SDS011;18778;47.610;9.776;2023-06-19T01:17:53;12.93;;;9.63;;
7919;SDS011;18778;47.610;9.776;2023-06-19T01:20:21;11.30;;;10.30;;
7919;SDS011;18778;47.610;9.776;2023-06-19T01:22:47;11.33;;;10.33;;
7919;SDS011;18778;47.610;9.776;2023-06-19T01:25:13;11.93;;;10.73;;
7919;SDS011;18778;47.610;9.776;2023-06-19T01:27:39;11.30;;;10.20;;
7919;SDS011;18778;47.610;9.776;2023-06-19T01:30:06;11.17;;;10.07;;
7919;SDS011;18778;47.610;9.776;2023-06-19T01:32:44;11.73;;;10.73;;
7919;SDS011;18778;47.610;9.776;2023-06-19T01:35:23;12.33;;;11.23;;
7919;SDS011;18778;47.610;9.776;2023-06-19T01:37:52;11.33;;;10.23;;
7919;SDS011;18778;47.610;9.776;2023-06-19T01:40:19;11.83;;;10.43;;
7919;SDS011;18778;47.610;9.776;2023-06-19T01:42:49;10.80;;;9.80;;
7919;SDS011;18778;47.610;9.776;2023-06-19T01:45:16;11.47;;;10.30;;
7919;SDS011;18778;47.610;9.776;2023-06-19T01:47:42;11.60;;;10.50;;
7919;SDS011;18778;47.610;9.776;2023-06-19T01:50:09;11.03;;;9.93;;
7919;SDS011;18778;47.610;9.776;2023-06-19T01:52:35;11.33;;;10.10;;
7919;SDS011;18778;47.610;9.776;2023-06-19T01:55:01;11.37;;;10.27;;
7919;SDS011;18778;47.610;9.776;2023-06-19T01:57:27;11.60;;;10.50;;
7919;SDS011;18778;47.610;9.776;2023-06-19T01:59:53;11.93;;;10.33;;
7919;SDS011;18778;47.610;9.776;2023-06-19T02:02:19;11.60;;;10.33;;
7919;SDS011;18778;47.610;9.776;2023-06-19T02:04:45;10.80;;;9.80;;
7919;SDS011;18778;47.610;9.776;2023-06-19T02:07:11;11.83;;;10.50;;
7919;SDS011;18778;47.610;9.776;2023-06-19T02:09:37;11.73;;;9.77;;
7919;SDS011;18778;47.610;9.776;2023-06-19T02:12:04;10.57;;;9.53;;
7919;SDS011;18778;47.610;9.776;2023-06-19T02:14:30;10.90;;;9.80;;
7919;SDS011;18778;47.610;9.776;2023-06-19T02:16:56;11.30;;;10.30;;
7919;SDS011;18778;47.610;9.776;2023-06-19T02:19:22;11.20;;;10.10;;
7919;SDS011;18778;47.610;9.776;2023-06-19T02:21:48;11.30;;;10.20;;
7919;SDS011;18778;47.610;9.776;2023-06-19T02:24:14;10.90;;;9.87;;
7919;SDS011;18778;47.610;9.776;2023-06-19T02:26:43;12.13;;;10.83;;
7919;SDS011;18778;47.610;9.776;2023-06-19T02:29:09;11.20;;;10.10;;
7919;SDS011;18778;47.610;9.776;2023-06-19T02:31:35;10.43;;;9.50;;
7919;SDS011;18778;47.610;9.776;2023-06-19T02:34:03;11.23;;;10.23;;
7919;SDS011;18778;47.610;9.776;2023-06-19T02:36:29;11.73;;;10.63;;
7919;SDS011;18778;47.610;9.776;2023-06-19T02:38:55;13.93;;;9.83;;
7919;SDS011;18778;47.610;9.776;2023-06-19T02:41:21;11.70;;;10.70;;
7919;SDS011;18778;47.610;9.776;2023-06-19T02:43:47;11.90;;;10.87;;
7919;SDS011;18778;47.610;9.776;2023-06-19T02:46:14;12.37;;;11.07;;
7919;SDS011;18778;47.610;9.776;2023-06-19T02:48:40;11.90;;;10.70;;
7919;SDS011;18778;47.610;9.776;2023-06-19T02:51:06;11.27;;;10.17;;
7919;SDS011;18778;47.610;9.776;2023-06-19T02:53:32;12.17;;;11.07;;
7919;SDS011;18778;47.610;9.776;2023-06-19T02:55:58;12.83;;;11.23;;
7919;SDS011;18778;47.610;9.776;2023-06-19T02:58:24;12.43;;;11.13;;
7919;SDS011;18778;47.610;9.776;2023-06-19T03:00:51;12.07;;;11.00;;
7919;SDS011;18778;47.610;9.776;2023-06-19T03:03:18;13.10;;;11.57;;
7919;SDS011;18778;47.610;9.776;2023-06-19T03:05:44;11.87;;;10.77;;
7919;SDS011;18778;47.610;9.776;2023-06-19T03:08:09;11.87;;;10.53;;
7919;SDS011;18778;47.610;9.776;2023-06-19T03:17:12;11.37;;;9.40;;
7919;SDS011;18778;47.610;9.776;2023-06-19T03:19:40;11.50;;;10.43;;
7919;SDS011;18778;47.610;9.776;2023-06-19T03:28:39;11.30;;;10.20;;
7919;SDS011;18778;47.610;9.776;2023-06-19T03:34:05;11.27;;;10.27;;
7919;SDS011;18778;47.610;9.776;2023-06-19T03:42:43;11.07;;;10.07;;
7919;SDS011;18778;47.610;9.776;2023-06-19T03:45:09;10.67;;;9.67;;
7919;SDS011;18778;47.610;9.776;2023-06-19T03:47:35;10.67;;;9.67;;
7919;SDS011;18778;47.610;9.776;2023-06-19T03:50:01;11.13;;;10.03;;
7919;SDS011;18778;47.610;9.776;2023-06-19T03:52:27;11.13;;;10.13;;
7919;SDS011;18778;47.610;9.776;2023-06-19T03:54:56;11.17;;;10.03;;
7919;SDS011;18778;47.610;9.776;2023-06-19T03:57:22;10.80;;;9.70;;
7919;SDS011;18778;47.610;9.776;2023-06-19T03:59:48;12.43;;;10.23;;
7919;SDS011;18778;47.610;9.776;2023-06-19T04:02:15;11.47;;;10.37;;
7919;SDS011;18778;47.610;9.776;2023-06-19T04:04:41;11.00;;;10.00;;
7919;SDS011;18778;47.610;9.776;2023-06-19T04:07:06;11.00;;;10.00;;
7919;SDS011;18778;47.610;9.776;2023-06-19T04:09:32;10.80;;;9.53;;
7919;SDS011;18778;47.610;9.776;2023-06-19T04:11:58;10.43;;;9.53;;
7919;SDS011;18778;47.610;9.776;2023-06-19T04:14:33;11.10;;;10.00;;
7919;SDS011;18778;47.610;9.776;2023-06-19T04:16:59;11.00;;;10.00;;
7919;SDS011;18778;47.610;9.776;2023-06-19T04:19:25;11.00;;;9.53;;
7919;SDS011;18778;47.610;9.776;2023-06-19T04:21:51;10.63;;;9.53;;
7919;SDS011;18778;47.610;9.776;2023-06-19T04:24:19;10.67;;;9.53;;
7919;SDS011;18778;47.610;9.776;2023-06-19T04:26:45;9.63;;;8.83;;
7919;SDS011;18778;47.610;9.776;2023-06-19T04:29:14;10.47;;;9.40;;
7919;SDS011;18778;47.610;9.776;2023-06-19T04:31:45;10.03;;;8.97;;
7919;SDS011;18778;47.610;9.776;2023-06-19T04:34:15;10.30;;;9.30;;
7919;SDS011;18778;47.610;9.776;2023-06-19T04:36:42;10.90;;;9.87;;
7919;SDS011;18778;47.610;9.776;2023-06-19T04:39:08;10.00;;;9.10;;
7919;SDS011;18778;47.610;9.776;2023-06-19T04:41:34;11.13;;;10.10;;
7919;SDS011;18778;47.610;9.776;2023-06-19T04:44:04;10.40;;;9.50;;
7919;SDS011;18778;47.610;9.776;2023-06-19T04:46:30;10.53;;;9.43;;
7919;SDS011;18778;47.610;9.776;2023-06-19T04:48:56;10.90;;;9.90;;
7919;SDS011;18778;47.610;9.776;2023-06-19T04:51:22;9.80;;;9.00;;
7919;SDS011;18778;47.610;9.776;2023-06-19T04:53:48;10.17;;;9.17;;
7919;SDS011;18778;47.610;9.776;2023-06-19T04:56:14;9.77;;;8.87;;
7919;SDS011;18778;47.610;9.776;2023-06-19T04:58:40;10.47;;;9.40;;
7919;SDS011;18778;47.610;9.776;2023-06-19T05:01:14;9.87;;;8.97;;
7919;SDS011;18778;47.610;9.776;2023-06-19T05:07:12;10.47;;;9.47;;
7919;SDS011;18778;47.610;9.776;2023-06-19T05:10:11;10.43;;;9.43;;
7919;SDS011;18778;47.610;9.776;2023-06-19T05:12:52;9.93;;;9.00;;
7919;SDS011;18778;47.610;9.776;2023-06-19T05:15:40;10.23;;;9.33;;
7919;SDS011;18778;47.610;9.776;2023-06-19T05:18:07;9.70;;;8.80;;
7919;SDS011;18778;47.610;9.776;2023-06-19T05:20:33;10.00;;;9.10;;
7919;SDS011;18778;47.610;9.776;2023-06-19T05:22:59;9.87;;;8.87;;
7919;SDS011;18778;47.610;9.776;2023-06-19T05:25:25;8.43;;;7.70;;
7919;SDS011;18778;47.610;9.776;2023-06-19T05:27:51;10.43;;;8.37;;
7919;SDS011;18778;47.610;9.776;2023-06-19T05:30:17;10.17;;;9.17;;
7919;SDS011;18778;47.610;9.776;2023-06-19T05:32:42;11.17;;;9.17;;
7919;SDS011;18778;47.610;9.776;2023-06-19T05:35:09;13.80;;;8.90;;
7919;SDS011;18778;47.610;9.776;2023-06-19T05:37:35;9.27;;;8.37;;
7919;SDS011;18778;47.610;9.776;2023-06-19T05:40:01;9.87;;;8.97;;
7919;SDS011;18778;47.610;9.776;2023-06-19T05:42:27;11.43;;;9.20;;
7919;SDS011;18778;47.610;9.776;2023-06-19T05:44:52;11.07;;;9.27;;
7919;SDS011;18778;47.610;9.776;2023-06-19T05:47:18;11.00;;;10.00;;
7919;SDS011;18778;47.610;9.776;2023-06-19T05:49:46;12.30;;;9.50;;
7919;SDS011;18778;47.610;9.776;2023-06-19T05:52:12;10.30;;;9.30;;
7919;SDS011;18778;47.610;9.776;2023-06-19T05:54:41;10.17;;;9.27;;
7919;SDS011;18778;47.610;9.776;2023-06-19T05:57:07;10.23;;;9.20;;
7919;SDS011;18778;47.610;9.776;2023-06-19T05:59:33;10.07;;;9.07;;
7919;SDS011;18778;47.610;9.776;2023-06-19T06:01:59;10.10;;;9.10;;
7919;SDS011;18778;47.610;9.776;2023-06-19T06:04:25;9.97;;;8.97;;
7919;SDS011;18778;47.610;9.776;2023-06-19T06:06:51;16.63;;;9.20;;
7919;SDS011;18778;47.610;9.776;2023-06-19T06:09:17;10.07;;;9.17;;
7919;SDS011;18778;47.610;9.776;2023-06-19T06:11:43;10.43;;;9.43;;
7919;SDS011;18778;47.610;9.776;2023-06-19T06:14:08;9.40;;;8.27;;
7919;SDS011;18778;47.610;9.776;2023-06-19T06:16:34;9.43;;;8.53;;
7919;SDS011;18778;47.610;9.776;2023-06-19T06:19:01;8.77;;;7.97;;
7919;SDS011;18778;47.610;9.776;2023-06-19T06:21:27;8.03;;;7.20;;
7919;SDS011;18778;47.610;9.776;2023-06-19T06:23:53;8.13;;;7.43;;
7919;SDS011;18778;47.610;9.776;2023-06-19T06:26:19;7.87;;;7.17;;
7919;SDS011;18778;47.610;9.776;2023-06-19T06:28:48;7.70;;;7.00;;
7919;SDS011;18778;47.610;9.776;2023-06-19T06:31:14;8.60;;;7.87;;
7919;SDS011;18778;47.610;9.776;2023-06-19T06:33:43;8.17;;;7.40;;
7919;SDS011;18778;47.610;9.776;2023-06-19T06:36:15;8.13;;;7.40;;
7919;SDS011;18778;47.610;9.776;2023-06-19T06:38:41;7.80;;;7.03;;
7919;SDS011;18778;47.610;9.776;2023-06-19T06:41:07;7.00;;;6.50;;
7919;SDS011;18778;47.610;9.776;2023-06-19T06:43:36;7.03;;;6.33;;
7919;SDS011;18778;47.610;9.776;2023-06-19T06:46:06;7.40;;;6.80;;
7919;SDS011;18778;47.610;9.776;2023-06-19T06:48:32;6.33;;;5.83;;
7919;SDS011;18778;47.610;9.776;2023-06-19T06:50:58;6.43;;;5.93;;
7919;SDS011;18778;47.610;9.776;2023-06-19T06:53:26;6.20;;;5.60;;
7919;SDS011;18778;47.610;9.776;2023-06-19T06:55:58;6.63;;;5.90;;
7919;SDS011;18778;47.610;9.776;2023-06-19T06:58:25;6.40;;;5.80;;
7919;SDS011;18778;47.610;9.776;2023-06-19T07:00:55;6.60;;;6.00;;
7919;SDS011;18778;47.610;9.776;2023-06-19T07:03:24;5.73;;;5.00;;
7919;SDS011;18778;47.610;9.776;2023-06-19T07:05:55;5.67;;;5.17;;
7919;SDS011;18778;47.610;9.776;2023-06-19T07:08:21;5.37;;;4.87;;
7919;SDS011;18778;47.610;9.776;2023-06-19T07:10:47;5.43;;;4.93;;
7919;SDS011;18778;47.610;9.776;2023-06-19T07:13:13;5.53;;;5.13;;
7919;SDS011;18778;47.610;9.776;2023-06-19T07:15:39;6.30;;;5.80;;
7919;SDS011;18778;47.610;9.776;2023-06-19T07:18:05;5.70;;;5.20;;
7919;SDS011;18778;47.610;9.776;2023-06-19T07:20:34;5.63;;;5.10;;
7919;SDS011;18778;47.610;9.776;2023-06-19T07:23:00;5.53;;;5.13;;
7919;SDS011;18778;47.610;9.776;2023-06-19T07:25:29;6.10;;;4.90;;
7919;SDS011;18778;47.610;9.776;2023-06-19T07:27:55;5.30;;;4.90;;
7919;SDS011;18778;47.610;9.776;2023-06-19T07:30:24;7.13;;;5.33;;
7919;SDS011;18778;47.610;9.776;2023-06-19T07:32:50;5.13;;;4.73;;
7919;SDS011;18778;47.610;9.776;2023-06-19T07:35:16;6.13;;;5.00;;
7919;SDS011;18778;47.610;9.776;2023-06-19T07:37:45;5.30;;;4.90;;
7919;SDS011;18778;47.610;9.776;2023-06-19T07:40:11;5.53;;;5.03;;
7919;SDS011;18778;47.610;9.776;2023-06-19T07:42:37;5.23;;;4.83;;
7919;SDS011;18778;47.610;9.776;2023-06-19T07:45:04;5.40;;;5.00;;
7919;SDS011;18778;47.610;9.776;2023-06-19T07:50:06;5.00;;;4.60;;
7919;SDS011;18778;47.610;9.776;2023-06-19T07:52:33;5.20;;;4.80;;
7919;SDS011;18778;47.610;9.776;2023-06-19T07:55:00;4.93;;;4.37;;
7919;SDS011;18778;47.610;9.776;2023-06-19T07:57:27;4.77;;;4.40;;
7919;SDS011;18778;47.610;9.776;2023-06-19T07:59:53;5.10;;;4.60;;
7919;SDS011;18778;47.610;9.776;2023-06-19T08:02:19;4.87;;;4.47;;
7919;SDS011;18778;47.610;9.776;2023-06-19T08:04:48;5.20;;;4.80;;
7919;SDS011;18778;47.610;9.776;2023-06-19T08:07:13;4.80;;;4.50;;
7919;SDS011;18778;47.610;9.776;2023-06-19T08:09:39;4.97;;;4.50;;
7919;SDS011;18778;47.610;9.776;2023-06-19T08:12:05;4.70;;;4.30;;
7919;SDS011;18778;47.610;9.776;2023-06-19T08:14:31;5.17;;;4.77;;
7919;SDS011;18778;47.610;9.776;2023-06-19T08:16:56;4.87;;;4.47;;
7919;SDS011;18778;47.610;9.776;2023-06-19T08:19:22;4.40;;;4.00;;
7919;SDS011;18778;47.610;9.776;2023-06-19T08:21:48;4.33;;;4.03;;
7919;SDS011;18778;47.610;9.776;2023-06-19T08:24:13;4.33;;;4.03;;
7919;SDS011;18778;47.610;9.776;2023-06-19T08:26:39;3.47;;;3.27;;
7919;SDS011;18778;47.610;9.776;2023-06-19T08:29:04;3.50;;;3.30;;
7919;SDS011;18778;47.610;9.776;2023-06-19T08:31:30;3.73;;;3.53;;
7919;SDS011;18778;47.610;9.776;2023-06-19T08:33:56;4.03;;;3.63;;
7919;SDS011;18778;47.610;9.776;2023-06-19T08:36:22;3.40;;;3.00;;
7919;SDS011;18778;47.610;9.776;2023-06-19T08:38:47;3.47;;;3.20;;
7919;SDS011;18778;47.610;9.776;2023-06-19T08:41:18;3.25;;;3.05;;
7919;SDS011;18778;47.610;9.776;2023-06-19T08:43:44;3.15;;;2.92;;
7919;SDS011;18778;47.610;9.776;2023-06-19T08:46:11;3.10;;;2.88;;
7919;SDS011;18778;47.610;9.776;2023-06-19T08:48:40;2.78;;;2.58;;
7919;SDS011;18778;47.610;9.776;2023-06-19T08:51:06;4.82;;;2.60;;
7919;SDS011;18778;47.610;9.776;2023-06-19T08:53:35;2.90;;;2.70;;
7919;SDS011;18778;47.610;9.776;2023-06-19T08:56:08;2.60;;;2.50;;
7919;SDS011;18778;47.610;9.776;2023-06-19T08:58:33;2.58;;;2.47;;
7919;SDS011;18778;47.610;9.776;2023-06-19T09:00:59;3.20;;;3.00;;
7919;SDS011;18778;47.610;9.776;2023-06-19T09:03:25;2.47;;;2.38;;
7919;SDS011;18778;47.610;9.776;2023-06-19T09:05:50;2.55;;;2.35;;
7919;SDS011;18778;47.610;9.776;2023-06-19T09:08:19;1.90;;;1.80;;
7919;SDS011;18778;47.610;9.776;2023-06-19T09:10:59;2.20;;;2.10;;
7919;SDS011;18778;47.610;9.776;2023-06-19T09:13:29;2.30;;;2.20;;
7919;SDS011;18778;47.610;9.776;2023-06-19T09:15:57;2.13;;;2.03;;
7919;SDS011;18778;47.610;9.776;2023-06-19T09:18:42;2.30;;;2.20;;
7919;SDS011;18778;47.610;9.776;2023-06-19T09:21:16;2.22;;;2.13;;
7919;SDS011;18778;47.610;9.776;2023-06-19T09:23:43;2.25;;;2.15;;
7919;SDS011;18778;47.610;9.776;2023-06-19T09:26:13;2.50;;;2.30;;
7919;SDS011;18778;47.610;9.776;2023-06-19T09:28:41;2.20;;;2.10;;
7919;SDS011;18778;47.610;9.776;2023-06-19T09:31:09;2.23;;;2.13;;
7919;SDS011;18778;47.610;9.776;2023-06-19T09:33:35;2.70;;;2.50;;
7919;SDS011;18778;47.610;9.776;2023-06-19T09:36:03;2.38;;;2.20;;
7919;SDS011;18778;47.610;9.776;2023-06-19T09:38:31;2.40;;;2.30;;
7919;SDS011;18778;47.610;9.776;2023-06-19T09:41:00;2.25;;;2.15;;
7919;SDS011;18778;47.610;9.776;2023-06-19T09:43:36;2.38;;;2.22;;
7919;SDS011;18778;47.610;9.776;2023-06-19T09:46:32;2.78;;;2.58;;
7919;SDS011;18778;47.610;9.776;2023-06-19T09:49:01;2.80;;;2.60;;
7919;SDS011;18778;47.610;9.776;2023-06-19T09:51:31;2.75;;;2.55;;
7919;SDS011;18778;47.610;9.776;2023-06-19T09:54:02;2.83;;;2.47;;
7919;SDS011;18778;47.610;9.776;2023-06-19T09:56:29;4.45;;;2.63;;
7919;SDS011;18778;47.610;9.776;2023-06-19T09:58:57;4.90;;;3.30;;
7919;SDS011;18778;47.610;9.776;2023-06-19T10:01:25;3.05;;;2.85;;
7919;SDS011;18778;47.610;9.776;2023-06-19T10:04:05;2.83;;;2.63;;
7919;SDS011;18778;47.610;9.776;2023-06-19T10:06:32;3.10;;;2.90;;
7919;SDS011;18778;47.610;9.776;2023-06-19T10:09:05;2.92;;;2.72;;
7919;SDS011;18778;47.610;9.776;2023-06-19T10:11:49;3.10;;;2.90;;
7919;SDS011;18778;47.610;9.776;2023-06-19T10:14:17;3.30;;;3.00;;
7919;SDS011;18778;47.610;9.776;2023-06-19T10:16:46;2.60;;;2.50;;
7919;SDS011;18778;47.610;9.776;2023-06-19T10:19:15;2.40;;;2.30;;
7919;SDS011;18778;47.610;9.776;2023-06-19T10:21:52;3.17;;;2.80;;
7919;SDS011;18778;47.610;9.776;2023-06-19T10:24:19;3.25;;;2.92;;
7919;SDS011;18778;47.610;9.776;2023-06-19T10:27:01;3.22;;;3.03;;
7919;SDS011;18778;47.610;9.776;2023-06-19T10:29:40;2.97;;;2.78;;
7919;SDS011;18778;47.610;9.776;2023-06-19T10:32:06;3.13;;;2.92;;
7919;SDS011;18778;47.610;9.776;2023-06-19T10:34:35;3.13;;;2.90;;
7919;SDS011;18778;47.610;9.776;2023-06-19T10:37:01;3.20;;;3.00;;
7919;SDS011;18778;47.610;9.776;2023-06-19T10:39:27;2.70;;;2.50;;
7919;SDS011;18778;47.610;9.776;2023-06-19T10:41:52;2.83;;;2.53;;
7919;SDS011;18778;47.610;9.776;2023-06-19T10:44:18;3.47;;;3.17;;
7919;SDS011;18778;47.610;9.776;2023-06-19T10:46:43;3.55;;;3.35;;
7919;SDS011;18778;47.610;9.776;2023-06-19T10:49:09;3.53;;;3.25;;
7919;SDS011;18778;47.610;9.776;2023-06-19T10:51:40;3.25;;;3.05;;
7919;SDS011;18778;47.610;9.776;2023-06-19T10:54:08;3.70;;;3.40;;
7919;SDS011;18778;47.610;9.776;2023-06-19T10:56:34;3.40;;;3.10;;
7919;SDS011;18778;47.610;9.776;2023-06-19T10:59:02;3.63;;;3.42;;
7919;SDS011;18778;47.610;9.776;2023-06-19T11:01:41;3.72;;;3.47;;
7919;SDS011;18778;47.610;9.776;2023-06-19T11:04:08;4.35;;;3.33;;
7919;SDS011;18778;47.610;9.776;2023-06-19T11:06:35;3.20;;;3.00;;
7919;SDS011;18778;47.610;9.776;2023-06-19T11:09:02;2.92;;;2.78;;
7919;SDS011;18778;47.610;9.776;2023-06-19T11:11:40;3.03;;;2.83;;
7919;SDS011;18778;47.610;9.776;2023-06-19T11:14:08;3.10;;;2.90;;
7919;SDS011;18778;47.610;9.776;2023-06-19T11:16:34;3.22;;;3.03;;
7919;SDS011;18778;47.610;9.776;2023-06-19T11:19:02;3.15;;;2.95;;
7919;SDS011;18778;47.610;9.776;2023-06-19T11:21:35;2.97;;;2.70;;
7919;SDS011;18778;47.610;9.776;2023-06-19T11:24:05;2.60;;;2.50;;
7919;SDS011;18778;47.610;9.776;2023-06-19T11:26:37;3.03;;;2.83;;
7919;SDS011;18778;47.610;9.776;2023-06-19T11:29:29;3.05;;;2.80;;
7919;SDS011;18778;47.610;9.776;2023-06-19T11:34:39;3.35;;;2.80;;
7919;SDS011;18778;47.610;9.776;2023-06-19T11:39:57;3.10;;;2.80;;
7919;SDS011;18778;47.610;9.776;2023-06-19T11:42:24;3.42;;;3.13;;
7919;SDS011;18778;47.610;9.776;2023-06-19T11:44:54;5.75;;;3.05;;
7919;SDS011;18778;47.610;9.776;2023-06-19T11:47:32;3.15;;;2.85;;
7919;SDS011;18778;47.610;9.776;2023-06-19T11:49:58;2.95;;;2.75;;
7919;SDS011;18778;47.610;9.776;2023-06-19T11:52:25;3.42;;;3.22;;
7919;SDS011;18778;47.610;9.776;2023-06-19T11:54:51;3.65;;;3.42;;
7919;SDS011;18778;47.610;9.776;2023-06-19T11:57:16;3.55;;;3.35;;
7919;SDS011;18778;47.610;9.776;2023-06-19T11:59:42;3.88;;;3.65;;
7919;SDS011;18778;47.610;9.776;2023-06-19T12:02:08;3.83;;;3.53;;
7919;SDS011;18778;47.610;9.776;2023-06-19T12:04:34;3.70;;;3.50;;
7919;SDS011;18778;47.610;9.776;2023-06-19T12:07:00;3.92;;;3.60;;
7919;SDS011;18778;47.610;9.776;2023-06-19T12:09:26;3.97;;;3.67;;
7919;SDS011;18778;47.610;9.776;2023-06-19T12:11:52;4.15;;;3.80;;
7919;SDS011;18778;47.610;9.776;2023-06-19T12:14:18;4.43;;;4.13;;
7919;SDS011;18778;47.610;9.776;2023-06-19T12:16:47;4.20;;;3.90;;
7919;SDS011;18778;47.610;9.776;2023-06-19T12:19:13;5.13;;;4.65;;
7919;SDS011;18778;47.610;9.776;2023-06-19T12:21:39;3.80;;;3.60;;
7919;SDS011;18778;47.610;9.776;2023-06-19T12:24:05;4.53;;;4.20;;
7919;SDS011;18778;47.610;9.776;2023-06-19T12:26:31;4.68;;;4.38;;
7919;SDS011;18778;47.610;9.776;2023-06-19T12:29:02;4.65;;;4.25;;
7919;SDS011;18778;47.610;9.776;2023-06-19T12:31:28;4.90;;;4.40;;
7919;SDS011;18778;47.610;9.776;2023-06-19T12:33:54;4.78;;;4.38;;
7919;SDS011;18778;47.610;9.776;2023-06-19T12:36:20;5.07;;;4.68;;
7919;SDS011;18778;47.610;9.776;2023-06-19T12:38:46;4.97;;;4.57;;
7919;SDS011;18778;47.610;9.776;2023-06-19T12:41:12;4.72;;;4.43;;
7919;SDS011;18778;47.610;9.776;2023-06-19T12:43:38;5.05;;;4.65;;
7919;SDS011;18778;47.610;9.776;2023-06-19T12:46:03;4.60;;;4.30;;
7919;SDS011;18778;47.610;9.776;2023-06-19T12:48:30;4.45;;;4.05;;
7919;SDS011;18778;47.610;9.776;2023-06-19T12:50:56;4.68;;;4.22;;
7919;SDS011;18778;47.610;9.776;2023-06-19T12:53:22;4.63;;;4.32;;
7919;SDS011;18778;47.610;9.776;2023-06-19T12:55:51;4.57;;;4.20;;
7919;SDS011;18778;47.610;9.776;2023-06-19T12:58:18;5.93;;;4.40;;
7919;SDS011;18778;47.610;9.776;2023-06-19T13:00:44;4.90;;;4.50;;
7919;SDS011;18778;47.610;9.776;2023-06-19T13:03:10;4.40;;;4.10;;
7919;SDS011;18778;47.610;9.776;2023-06-19T13:05:35;4.75;;;4.35;;
7919;SDS011;18778;47.610;9.776;2023-06-19T13:08:01;4.72;;;4.32;;
7919;SDS011;18778;47.610;9.776;2023-06-19T13:10:27;4.60;;;4.30;;
7919;SDS011;18778;47.610;9.776;2023-06-19T13:12:52;5.38;;;4.30;;
7919;SDS011;18778;47.610;9.776;2023-06-19T13:15:18;4.88;;;4.47;;
7919;SDS011;18778;47.610;9.776;2023-06-19T13:17:44;4.60;;;4.30;;
7919;SDS011;18778;47.610;9.776;2023-06-19T13:20:09;4.28;;;3.97;;
7919;SDS011;18778;47.610;9.776;2023-06-19T13:22:35;4.43;;;4.03;;
7919;SDS011;18778;47.610;9.776;2023-06-19T13:25:01;4.85;;;4.45;;
7919;SDS011;18778;47.610;9.776;2023-06-19T13:27:27;4.47;;;4.18;;
7919;SDS011;18778;47.610;9.776;2023-06-19T13:29:53;5.28;;;4.53;;
7919;SDS011;18778;47.610;9.776;2023-06-19T13:32:19;5.00;;;4.53;;
7919;SDS011;18778;47.610;9.776;2023-06-19T13:34:45;4.60;;;4.20;;
7919;SDS011;18778;47.610;9.776;2023-06-19T13:37:10;4.68;;;4.38;;
7919;SDS011;18778;47.610;9.776;2023-06-19T13:39:36;4.80;;;4.40;;
7919;SDS011;18778;47.610;9.776;2023-06-19T13:42:03;4.70;;;4.30;;
7919;SDS011;18778;47.610;9.776;2023-06-19T13:44:28;5.05;;;4.65;;
7919;SDS011;18778;47.610;9.776;2023-06-19T13:46:54;6.38;;;4.65;;
7919;SDS011;18778;47.610;9.776;2023-06-19T13:49:20;5.28;;;4.78;;
7919;SDS011;18778;47.610;9.776;2023-06-19T13:51:45;5.85;;;4.40;;
7919;SDS011;18778;47.610;9.776;2023-06-19T13:54:11;4.68;;;4.38;;
7919;SDS011;18778;47.610;9.776;2023-06-19T13:56:38;4.97;;;4.57;;
7919;SDS011;18778;47.610;9.776;2023-06-19T13:59:04;5.20;;;4.80;;
7919;SDS011;18778;47.610;9.776;2023-06-19T14:01:30;5.35;;;4.85;;
7919;SDS011;18778;47.610;9.776;2023-06-19T14:03:57;6.10;;;5.03;;
7919;SDS011;18778;47.610;9.776;2023-06-19T14:06:26;4.80;;;4.40;;
7919;SDS011;18778;47.610;9.776;2023-06-19T14:08:51;5.82;;;4.28;;
7919;SDS011;18778;47.610;9.776;2023-06-19T14:11:18;4.50;;;4.20;;
7919;SDS011;18778;47.610;9.776;2023-06-19T14:13:44;4.85;;;4.47;;
7919;SDS011;18778;47.610;9.776;2023-06-19T14:16:09;4.75;;;4.30;;
7919;SDS011;18778;47.610;9.776;2023-06-19T14:18:35;4.88;;;4.43;;
7919;SDS011;18778;47.610;9.776;2023-06-19T14:21:02;4.30;;;3.90;;
7919;SDS011;18778;47.610;9.776;2023-06-19T14:23:28;4.40;;;4.10;;
7919;SDS011;18778;47.610;9.776;2023-06-19T14:25:53;4.00;;;3.70;;
7919;SDS011;18778;47.610;9.776;2023-06-19T14:28:19;5.10;;;3.95;;
7919;SDS011;18778;47.610;9.776;2023-06-19T14:30:45;4.40;;;4.00;;
7919;SDS011;18778;47.610;9.776;2023-06-19T14:33:10;4.22;;;3.92;;
7919;SDS011;18778;47.610;9.776;2023-06-19T14:35:40;4.68;;;4.38;;
7919;SDS011;18778;47.610;9.776;2023-06-19T14:38:06;4.10;;;3.90;;
7919;SDS011;18778;47.610;9.776;2023-06-19T14:40:32;4.13;;;3.83;;
7919;SDS011;18778;47.610;9.776;2023-06-19T14:42:57;4.10;;;3.80;;
7919;SDS011;18778;47.610;9.776;2023-06-19T14:45:23;4.07;;;3.78;;
7919;SDS011;18778;47.610;9.776;2023-06-19T14:47:48;3.90;;;3.70;;
7919;SDS011;18778;47.610;9.776;2023-06-19T14:50:14;3.88;;;3.67;;
7919;SDS011;18778;47.610;9.776;2023-06-19T14:52:40;4.05;;;3.75;;
7919;SDS011;18778;47.610;9.776;2023-06-19T14:55:06;6.18;;;3.85;;
7919;SDS011;18778;47.610;9.776;2023-06-19T14:57:32;5.70;;;4.13;;
7919;SDS011;18778;47.610;9.776;2023-06-19T15:00:01;6.63;;;4.18;;
7919;SDS011;18778;47.610;9.776;2023-06-19T15:02:27;4.43;;;4.13;;
7919;SDS011;18778;47.610;9.776;2023-06-19T15:04:52;4.43;;;4.03;;
7919;SDS011;18778;47.610;9.776;2023-06-19T15:07:18;4.18;;;3.42;;
7919;SDS011;18778;47.610;9.776;2023-06-19T15:09:44;3.78;;;3.58;;
7919;SDS011;18778;47.610;9.776;2023-06-19T15:12:09;3.97;;;3.67;;
7919;SDS011;18778;47.610;9.776;2023-06-19T15:14:35;4.18;;;3.42;;
7919;SDS011;18778;47.610;9.776;2023-06-19T15:17:03;3.97;;;3.78;;
7919;SDS011;18778;47.610;9.776;2023-06-19T15:19:29;3.88;;;3.67;;
7919;SDS011;18778;47.610;9.776;2023-06-19T15:21:54;6.07;;;3.65;;
7919;SDS011;18778;47.610;9.776;2023-06-19T15:24:20;3.38;;;3.17;;
7919;SDS011;18778;47.610;9.776;2023-06-19T15:26:45;3.97;;;3.67;;
7919;SDS011;18778;47.610;9.776;2023-06-19T15:29:11;3.83;;;3.53;;